ADDS METAR Data INFO
IDs: Format: Raw Decoded Include TAF

Data at: 1133 UTC 29 May 2017

KSGR 291053Z AUTO 17003KT 10SM FEW018 22/21 A2993 RMK AO2 SLP137 T02220211
KSGR 290953Z AUTO 02005KT 10SM CLR 22/21 A2987 RMK AO2 RAE0858 SLP114 P0000 T02220206
KSGR 290853Z AUTO 31005KT 10SM -RA FEW095 FEW110 22/21 A2989 RMK AO2 SLP123 P0000 60036 T02220206 56042
KSGR 290808Z AUTO 14010KT 10SM -RA FEW110 22/21 A2989 RMK AO2 LTG DSNT NE-S P0000 T02220206
KSGR 290753Z AUTO 15011KT 10SM VCTS -RA CLR 22/21 A2990 RMK AO2 LTG DSNT E-S TSE11B15E30 PRESFR SLP125 P0002 T02220206
KSGR 290736Z AUTO 15011KT 10SM VCTS -RA CLR 22/21 A2992 RMK AO2 LTG DSNT ALQDS TSE11B15E30 P0001 T02220206
KSGR 290653Z AUTO 10012KT 10SM -TSRA FEW075 SCT090 BKN110 22/20 A2993 RMK AO2 LTG DSNT ALQDS PRESFR SLP136 P0034 T02220200
KSGR 290612Z AUTO 09011G19KT 4SM +TSRA BR FEW005 OVC030 22/21 A3000 RMK AO2 LTG DSNT ALQDS P0022 T02170211
KSGR 290604Z AUTO 11009KT 2SM +TSRA BR FEW004 BKN016 OVC036 22/21 A3003 RMK AO2 LTG DSNT ALQDS P0019 T02170211
KSGR 290553Z AUTO 05014G19KT 1SM +TSRA BR FEW005 OVC012 22/21 A3002 RMK AO2 LTG DSNT ALQDS RAB17 TSE0457B05 SLP165 P0134 60134 T02220211 10294 20222 403280222 51011
KSGR 290546Z AUTO 08006KT 1/2SM +TSRA FG FEW005 BKN012 OVC042 22/22 A3004 RMK AO2 LTG DSNT ALQDS RAB17 TSE0457B05 P0110 T02220217
KSGR 290541Z AUTO 11004KT 3/4SM +TSRA BR FEW005 BKN016 OVC044 22/21 A3004 RMK AO2 LTG DSNT ALQDS RAB17 TSE0457B05 P0075 T02220211
KSGR 290533Z AUTO 03008KT 1 3/4SM +TSRA BR BKN023 BKN030 OVC043 22/21 A3003 RMK AO2 LTG DSNT ALQDS RAB17 TSE0457B05 P0023 T02220211
KSGR 290510Z AUTO 02014G18KT 10SM TS FEW014 BKN023 OVC065 25/21 A3002 RMK AO2 LTG DSNT ALQDS TSE0457B05 T02500206
KSGR 290503Z AUTO 04009KT 10SM VCTS FEW014 BKN036 OVC075 26/21 A3001 RMK AO2 LTG DSNT W-NE TSE0457 T02560206
KSGR 290453Z AUTO 35012G18KT 10SM TS FEW014 BKN065 OVC075 27/23 A3002 RMK AO2 LTG DSNT W-NE TSB42 SLP165 T02670233
KSGR 290448Z AUTO VRB04KT 9SM TS OVC070 28/25 A3002 RMK AO2 LTG DSNT W-NE TSB42 PRESRR
KSGR 290437Z AUTO 11005KT 9SM VCTS OVC075 28/25 A3000 RMK AO2 LTG DSNT W-NE T02780250
KSGR 290353Z AUTO 12007KT 10SM FEW070 FEW100 28/24 A2999 RMK AO2 LTG DSNT N AND NW SLP154 T02780244
KSGR 290253Z 13006KT 10SM CLR 28/24 A2994 RMK AO2 SLP139 T02780244 51043
KSGR 290153Z 16005KT 10SM CLR 27/24 A2991 RMK AO2 SLP127 T02720244
KSGR 290053Z 18008KT 10SM FEW022 OVC034 29/24 A2985 RMK AO2 SLP108 T02890239
KSGR 282353Z 17015KT 10SM FEW023 29/24 A2981 RMK AO2 SLP096 T02940239 10328 20294 58029
KSGR 282324Z 16012G19KT 10SM SCT025 31/25 A2983 RMK AO2 T03060250
KSGR 282313Z 14015G20KT 10SM BKN026 31/25 A2983 RMK AO2 T03110250
KSGR 282253Z 14016G20KT 10SM SCT026 31/25 A2984 RMK AO2 SLP104 T03110250
KSGR 282153Z 15014KT 10SM SCT027 BKN036 32/25 A2988 RMK AO2 SLP118 T03170250
KSGR 282053Z 15015KT 10SM SCT027 BKN036 32/25 A2990 RMK AO2 SLP125 T03170250 56014
KSGR 281953Z 16012KT 10SM SCT027 BKN038 32/25 A2991 RMK AO2 SLP129 T03220250
KSGR 281853Z 15014KT 10SM FEW032 SCT042 32/25 A2992 RMK AO2 SLP132 T03220250
KSGR 281753Z 18007KT 10SM SCT030 SCT040 32/24 A2994 RMK AO2 SLP138 T03170239 10322 20267 58002
KSGR 281653Z 16007KT 10SM FEW027 BKN055 BKN070 31/24 A2996 RMK AO2 SLP144 T03110239
KSGR 281553Z 15007KT 10SM OVC044 30/24 A2996 RMK AO2 SLP146 T03000244
KSGR 281453Z 16007KT 10SM FEW021 OVC039 29/25 A2994 RMK AO2 SLP140 T02940250 51032
KSGR 281353Z 18008KT 8SM SCT025 OVC034 28/25 A2991 RMK AO2 SLP130 T02830250
KSGR 281253Z AUTO 00000KT 8SM SCT016 BKN025 OVC029 27/25 A2990 RMK AO2 SLP125 T02720250
KSGR 281153Z AUTO 19007KT 8SM OVC022 27/24 A2985 RMK AO2 SLP109 T02670244 10267 20261 53006
KSGR 281053Z AUTO 18004KT 9SM OVC019 26/25 A2983 RMK AO2 SLP101 T02610250
KSGR 281012Z AUTO 17007KT 9SM OVC017 26/24 A2981 RMK AO2 T02610244
KSGR 280953Z AUTO 16007KT 10SM BKN014 OVC023 26/24 A2982 RMK AO2 SLP098 T02610244
KSGR 280853Z AUTO 17009KT 10SM OVC022 26/24 A2983 RMK AO2 SLP102 T02610244 58011
KSGR 280753Z AUTO 19005KT 9SM OVC025 26/25 A2985 RMK AO2 SLP109 T02610250
KSGR 280653Z AUTO 20007KT 8SM FEW008 SCT015 OVC022 27/25 A2987 RMK AO2 SLP114 T02670250
KSGR 280648Z AUTO 21007KT 8SM FEW008 OVC022 27/25 A2987 RMK AO2
KSGR 280553Z AUTO 19008KT 9SM OVC016 26/25 A2986 RMK AO2 SLP111 T02610250 10300 20261 403390261 58005
KSGR 280513Z AUTO 18009KT 9SM BKN018 26/24 A2986 RMK AO2 T02610244
KSGR 280453Z AUTO 17008KT 9SM SCT019 26/25 A2987 RMK AO2 SLP114 T02610250
KSGR 280410Z AUTO 18008KT 9SM FEW009 BKN018 26/25 A2988 RMK AO2 T02610250
KSGR 280353Z AUTO 17008KT 10SM FEW010 BKN018 26/25 A2988 RMK AO2 SLP118 T02610250
KSGR 280333Z AUTO 16010KT 10SM FEW009 BKN018 27/24 A2988 RMK AO2 T02670244
KSGR 280253Z 15010KT 10SM CLR 27/24 A2987 RMK AO2 SLP116 T02670239 53002
KSGR 280153Z 16010KT 10SM CLR 27/24 A2987 RMK AO2 SLP117 T02720239
KSGR 280053Z 17010KT 10SM CLR 28/24 A2986 RMK AO2 SLP112 T02830239
KSGR 272353Z 15014KT 10SM CLR 30/24 A2987 RMK AO2 SLP114 T03000239 10339 20300 56006


Page loaded:  11:33 UTC  |   04:33 AM Pacific  |   05:33 AM Mountain  |   06:33 AM Central  |   07:33 AM Eastern

 

ADVISORIES

FORECASTS

FORECASTS

OBSERVATIONS

USER TOOLS

ABOUT US